• Join FlightAware (Why Join?)
  • Login
  • US Flag 
06:00AM EDT


 

Airport Tracker/Info


-or-


 

Live Flight TrackerFlight Track Log ✈ FLG4222 ✈ 27-Sep-2013 ✈ KBGM - KDTW

Flight Track Log - Related Links

Times and Time Zones

All times are in EDT time to prevent confusion due to time zone crossing. See the FLG4222 flight status page for this flight to view local times or setup timezone preferences in your user account.

Time Position Orientation Groundspeed Altitude Reporting Facility
EDT Latitude Longitude Course Direction KTS MPH feet Rate Location/Type
11:46AM 42.2867 -76.1917 286° West 236 272 7,300  Level New York Center
11:48AM 42.3508 -76.4111 292° West 315 362 11,300 1,800 Climbing Cleveland Center
11:49AM 42.3833 -76.5358 289° West 346 398 13,000 1,560 Climbing Cleveland Center
11:50AM 42.2312 -76.7592 289° West  Level Estimated
11:50AM 42.4194 -76.6617 291° West 360 414 14,600  Level Cleveland Center
11:51AM 42.4600 -76.8158 290° West 363 418 16,300 1,500 Climbing Cleveland Center
11:52AM 42.4944 -76.9486 289° West 372 428 17,700 1,200 Climbing Cleveland Center
11:53AM 42.5306 -77.0850 290° West 383 441 18,800 960 Climbing Cleveland Center
11:54AM 42.5664 -77.2203 290° West 384 442 19,800 960 Climbing Cleveland Center
11:55AM 42.6025 -77.3597 289° West 391 450 20,800 960 Climbing Cleveland Center
11:56AM 42.6439 -77.5181 290° West 396 456 21,800 840 Climbing Cleveland Center
11:57AM 42.6806 -77.6606 289° West 399 459 22,600 720 Climbing Cleveland Center
11:58AM 42.7053 -77.8067 283° West 418 481 23,300 540 Climbing Cleveland Center
12:00PM 42.7078 -77.9672 271° West 427 491 23,800 480 Climbing Cleveland Center
12:01PM 42.7097 -78.1589 271° West 428 493 24,400 480 Climbing Cleveland Center
12:02PM 42.7117 -78.3214 271° West 432 497 24,900 480 Climbing Cleveland Center
12:03PM 42.7139 -78.4853 271° West 434 499 25,400 480 Climbing Cleveland Center
12:04PM 42.7142 -78.6486 270° West 435 501 25,900 480 Climbing Cleveland Center
12:05PM 42.7150 -78.8122 270° West 434 499 26,400 480 Climbing Cleveland Center
12:06PM 42.7156 -78.9767 270° West 435 501 26,900 480 Climbing Cleveland Center
12:07PM 42.7158 -79.1719 270° West 432 497 27,500 480 Climbing Cleveland Center
12:08PM 42.7169 -79.3361 271° West 434 499 28,000 240 Climbing Cleveland Center
12:09PM 42.7164 -79.5006 270° West 437 503 28,000  Level Cleveland Center
12:10PM 42.7167 -79.6669 270° West 441 507 28,000  Level Cleveland Center
12:11PM 42.7153 -79.8344 269° West 446 513 28,000  Level Cleveland Center
12:12PM 42.7131 -80.0161 269° West 444 511 28,000  Level Cleveland Center
12:13PM 42.7114 -80.1839 269° West 441 507 28,000  Level Cleveland Center
12:14PM 42.7106 -80.3528 270° West 444 511 28,000  Level Cleveland Center
12:15PM 42.7092 -80.5489 270° West 441 507 28,000 -300 Level Cleveland Center
12:16PM 42.7067 -80.7183 269° West 444 511 27,500 -780 Descending Cleveland Center
12:17PM 42.7033 -80.8969 269° West 465 535 26,500 -1,080 Descending Cleveland Center
12:18PM 42.6839 -81.0767 262° West 479 551 25,300 -1,440 Descending Cleveland Center
12:19PM 42.6647 -81.2539 262° West 474 545 23,600 -1,620 Descending Cleveland Center
12:20PM 42.6453 -81.4133 261° West 429 494 22,000 -1,500 Descending Cleveland Center
12:21PM 42.6300 -81.5564 262° West 386 444 20,600 -1,500 Descending Cleveland Center
12:22PM 42.6100 -81.7200 261° West 375 432 19,000 -1,380 Descending Cleveland Center
12:23PM 42.5933 -81.8544 260° West 376 433 17,800 -1,080 Descending Cleveland Center
12:24PM 42.5758 -81.9972 261° West 383 441 16,800 -1,140 Descending Cleveland Center
12:25PM 42.5589 -82.1381 261° West 381 438 15,500 -1,380 Descending Cleveland Center
12:26PM 42.5400 -82.2958 261° West 359 413 14,000 -1,260 Descending Cleveland Center
12:26PM 42.5414 -82.2733 85° East 370 426 14,200 -1,380 Climbing Cleveland Center
12:27PM 42.5217 -82.4300 260° West 357 411 12,600 -1,140 Descending Cleveland Center
12:28PM 42.5025 -82.5628 259° West 350 403 12,000 -600 Descending Cleveland Center
12:28PM 42.5039 -82.5578 69° East 349 402 12,000 -1,020 Level Cleveland Center
12:29PM 42.4658 -82.6683 245° Southwest 328 377 11,100 -1,020 Descending Cleveland Center
12:30PM 42.4614 -82.6731 218° Southwest 345 397 11,000 -1,020 Descending Cleveland Center
12:30PM 42.4239 -82.7844 246° West 312 359 10,000 -1,020 Descending Cleveland Center
12:31PM 42.4239 -82.7781 90° East 321 369 10,000 -1,440 Level Cleveland Center
12:31PM 42.4064 -82.8811 257° West 290 334 8,700 -1,500 Descending Cleveland Center
12:32PM 42.4028 -82.8928 247° West 292 336 8,500 -1,620 Descending Cleveland Center
12:32PM 42.3964 -82.9869 265° West 278 320 7,100 -1,380 Descending Cleveland Center
12:33PM 42.3947 -82.9881 206° Southwest 283 326 7,100 -540 Level Cleveland Center
12:34PM 42.4006 -83.0978 274° West 236 272 6,500 -600 Descending Cleveland Center
12:34PM 42.3994 -83.0969 151° Southeast 256 295 6,500 -1,440 Level Cleveland Center
12:35PM 42.3947 -83.1761 265° West 244 281 5,200 -1,380 Descending Cleveland Center
12:35PM 42.3925 -83.1789 223° Southwest 244 281 5,100 -1,380 Descending Cleveland Center
12:36PM 42.3450 -83.2419 224° Southwest 249 287 3,600 -1,500 Descending Cleveland Center
12:36PM 42.2947 -83.2781 208° Southwest 197 227 2,400 -1,260 Descending Cleveland Center
12:37PM 42.2892 -83.2811 202° Southwest 234 269 2,300 -900 Descending Cleveland Center
12:38PM 42.2522 -83.3117 211° Southwest 146 168 1,400 -900 Descending Cleveland Center
12:38PM 42.2508 -83.3083 119° Southeast 182 209 1,400 -420 Level Cleveland Center
12:39PM 42.2081 -83.3397 209° Southwest 167 192 900 -540 Descending Cleveland Center
12:41PM 42.2000 -83.3500 236° Southwest  Level FlightAware Approximate
12:48PM 42.2124 -83.3534 236° Southwest  Level Estimated